Time;durP1;ratioP1;P1;durP2;ratioP2;P2;SDS_P1;SDS_P2;PMS_P1;PMS_P2;Temp;Humidity;BMP_temperature;BMP_pressure;BME280_temperature;BME280_humidity;BME280_pressure;Samples;Min_cycle;Max_cycle;Signal;HPM_P1;HPM_P2
2024/01/01 00:00:12;;;;;;;;;5.25;3.25;;;;;10.78;73.46;100237.97;5061055;28;45778;-62
2024/01/01 00:02:38;;;;;;;;;4.75;3.00;;;;;10.83;73.90;100268.00;5078819;28;45616;-62
2024/01/01 00:05:04;;;;;;;;;5.00;3.75;;;;;10.83;73.62;100249.31;5080165;28;45343;-62
2024/01/01 00:07:29;;;;;;;;;7.25;5.75;;;;;10.78;73.55;100243.31;5080977;28;45375;-62
2024/01/01 00:09:54;;;;;;;;;3.00;3.00;;;;;10.77;73.61;100254.91;5089374;27;61070;-62
2024/01/01 00:12:20;;;;;;;;;4.00;2.75;;;;;10.79;73.29;100261.91;5077738;27;51831;-62
2024/01/01 00:14:45;;;;;;;;;3.50;1.25;;;;;10.73;73.47;100252.34;5079450;28;45356;-62
2024/01/01 00:17:11;;;;;;;;;5.00;3.25;;;;;10.72;73.46;100239.06;5057203;28;60479;-62
2024/01/01 00:19:36;;;;;;;;;4.00;1.00;;;;;10.76;73.54;100248.69;5073294;28;45576;-62
2024/01/01 00:22:02;;;;;;;;;5.75;4.25;;;;;10.70;73.49;100247.13;5078063;28;45646;-62
2024/01/01 00:24:28;;;;;;;;;5.50;3.00;;;;;10.67;73.96;100238.38;5075974;28;45451;-62
2024/01/01 00:26:53;;;;;;;;;5.00;2.00;;;;;10.66;73.74;100250.88;5076997;28;45519;-62
2024/01/01 00:29:19;;;;;;;;;2.00;2.00;;;;;10.62;73.73;100248.38;5076961;28;45609;-62
2024/01/01 00:31:44;;;;;;;;;7.00;2.00;;;;;10.71;73.55;100256.88;5075977;28;63276;-62
2024/01/01 00:34:10;;;;;;;;;5.00;1.00;;;;;10.66;74.00;100261.53;5074148;28;45771;-62
2024/01/01 00:36:35;;;;;;;;;3.50;3.25;;;;;10.67;74.04;100267.75;5077315;28;45735;-62
2024/01/01 00:39:01;;;;;;;;;4.00;1.75;;;;;10.57;73.50;100232.53;5075809;28;45788;-62
2024/01/01 00:41:26;;;;;;;;;3.00;2.50;;;;;10.69;73.70;100261.44;5058319;28;46869;-62
2024/01/01 00:43:51;;;;;;;;;2.50;2.50;;;;;10.66;73.34;100255.31;5076563;28;45702;-62
2024/01/01 00:46:17;;;;;;;;;5.00;2.00;;;;;10.60;74.09;100243.09;5080426;28;45418;-62
2024/01/01 00:48:43;;;;;;;;;4.75;3.00;;;;;10.65;74.04;100259.78;5080229;28;45358;-62
2024/01/01 00:51:08;;;;;;;;;4.50;1.50;;;;;10.62;74.26;100253.72;5065030;28;47816;-62
2024/01/01 00:53:33;;;;;;;;;4.00;3.50;;;;;10.63;74.21;100260.81;5080455;28;45381;-62
2024/01/01 00:55:59;;;;;;;;;5.00;2.00;;;;;10.60;74.04;100244.91;5079746;28;53594;-62
2024/01/01 00:58:24;;;;;;;;;4.75;2.00;;;;;10.54;74.11;100249.56;5080298;28;45504;-62
2024/01/01 01:00:49;;;;;;;;;8.00;4.00;;;;;10.56;74.06;100242.34;5079500;28;62240;-62
2024/01/01 01:03:15;;;;;;;;;4.75;2.00;;;;;10.61;74.46;100257.31;5078805;28;50911;-62
2024/01/01 01:05:40;;;;;;;;;4.25;3.25;;;;;10.63;74.05;100256.31;5077901;28;45549;-62
2024/01/01 01:08:06;;;;;;;;;3.00;2.25;;;;;10.53;74.14;100241.63;5079964;28;45493;-62
2024/01/01 01:10:31;;;;;;;;;5.75;3.00;;;;;10.61;73.82;100258.19;5061685;28;47367;-62
2024/01/01 01:12:56;;;;;;;;;3.25;1.75;;;;;10.60;74.17;100250.25;5061700;28;45428;-62
2024/01/01 01:15:25;;;;;;;;;1.75;1.75;;;;;10.48;74.51;100239.13;5079744;28;51912;-62
2024/01/01 01:17:50;;;;;;;;;3.75;2.25;;;;;10.53;73.80;100249.63;5079793;28;45307;-62
2024/01/01 01:20:16;;;;;;;;;2.00;2.00;;;;;10.61;74.20;100254.63;5079718;28;45561;-62
2024/01/01 01:22:41;;;;;;;;;3.50;2.00;;;;;10.61;74.29;100251.97;5079976;28;45299;-62
2024/01/01 01:25:08;;;;;;;;;5.25;2.50;;;;;10.59;74.04;100267.19;5079894;28;45419;-62
2024/01/01 01:27:33;;;;;;;;;4.00;2.00;;;;;10.59;74.22;100254.69;5078931;28;45323;-62
2024/01/01 01:29:59;;;;;;;;;5.25;4.00;;;;;10.59;74.04;100256.50;5079677;28;45592;-62
2024/01/01 01:32:24;;;;;;;;;3.00;1.50;;;;;10.59;74.15;100253.84;5079686;28;45328;-62
2024/01/01 01:34:49;;;;;;;;;5.00;4.00;;;;;10.65;73.62;100269.63;5076539;28;45914;-62
2024/01/01 01:37:15;;;;;;;;;3.00;2.50;;;;;10.61;74.09;100267.97;5078136;28;45512;-62
2024/01/01 01:39:40;;;;;;;;;7.00;1.75;;;;;10.63;73.78;100276.81;5078805;28;63591;-62
2024/01/01 01:42:08;;;;;;;;;4.25;2.50;;;;;10.61;73.74;100279.53;5057782;28;45777;-62
2024/01/01 01:44:33;;;;;;;;;11.25;3.00;;;;;10.59;73.90;100278.72;5066540;28;45383;-62
2024/01/01 01:47:00;;;;;;;;;4.00;4.00;;;;;10.63;73.87;100284.81;5079414;28;45379;-62
2024/01/01 01:49:25;;;;;;;;;6.25;4.00;;;;;10.63;73.70;100288.34;5075243;28;45276;-62
2024/01/01 01:51:52;;;;;;;;;4.25;2.50;;;;;10.60;73.53;100293.81;5068545;28;45364;-62
2024/01/01 01:54:18;;;;;;;;;4.50;3.00;;;;;10.59;73.85;100294.72;5079402;28;45565;-62
2024/01/01 01:56:43;;;;;;;;;4.25;3.00;;;;;10.60;73.76;100298.28;5079387;28;45453;-62
2024/01/01 01:59:09;;;;;;;;;8.00;4.75;;;;;10.61;73.79;100308.00;5079331;28;45386;-62
2024/01/01 02:01:35;;;;;;;;;7.00;3.25;;;;;10.53;73.55;100298.53;5079218;28;45394;-62
2024/01/01 02:04:00;;;;;;;;;5.25;2.25;;;;;10.46;73.18;100291.69;5076094;28;45347;-62
2024/01/01 02:06:26;;;;;;;;;4.25;3.00;;;;;10.57;73.65;100313.50;5077133;28;45379;-62
2024/01/01 02:08:51;;;;;;;;;6.00;1.25;;;;;10.59;73.69;100307.22;5079078;28;45424;-62
2024/01/01 02:11:16;;;;;;;;;2.00;2.00;;;;;10.51;73.42;100294.19;5079177;28;45379;-61
2024/01/01 02:13:42;;;;;;;;;4.00;3.25;;;;;10.55;73.73;100298.47;5079100;28;45570;-62
2024/01/01 02:16:07;;;;;;;;;2.75;1.00;;;;;10.58;73.29;100306.34;5079409;28;45367;-62
2024/01/01 02:18:32;;;;;;;;;4.00;2.00;;;;;10.51;73.29;100297.72;5059659;28;67393;-62
2024/01/01 02:20:58;;;;;;;;;1.00;1.00;;;;;10.48;73.46;100283.63;5079318;28;45327;-62
2024/01/01 02:23:24;;;;;;;;;8.25;2.00;;;;;10.58;73.65;100309.03;5076718;28;45427;-62
2024/01/01 02:25:50;;;;;;;;;4.00;2.00;;;;;10.58;73.51;100319.69;5079067;28;45970;-62
2024/01/01 02:28:16;;;;;;;;;1.25;1.00;;;;;10.56;72.91;100319.75;5078838;28;46280;-62
2024/01/01 02:30:41;;;;;;;;;6.50;2.00;;;;;10.56;73.57;100325.09;5079168;28;45343;-62
2024/01/01 02:33:10;;;;;;;;;4.00;2.00;;;;;10.56;72.90;100326.91;5078887;28;45307;-62
2024/01/01 02:35:36;;;;;;;;;2.25;1.75;;;;;10.53;72.88;100319.88;5077432;28;45362;-62
2024/01/01 02:38:04;;;;;;;;;6.50;1.50;;;;;10.52;73.21;100328.81;5078747;28;46275;-62
2024/01/01 02:40:37;;;;;;;;;3.00;1.25;;;;;10.51;73.04;100318.22;5077792;28;45495;-61
2024/01/01 02:43:03;;;;;;;;;4.00;1.50;;;;;10.54;73.40;100321.63;5078960;28;45419;-62
2024/01/01 02:45:32;;;;;;;;;0.25;0.25;;;;;10.54;73.08;100326.06;5078822;28;45323;-62
2024/01/01 02:47:58;;;;;;;;;1.50;1.00;;;;;10.54;73.07;100331.41;5079596;28;45472;-62
2024/01/01 02:50:25;;;;;;;;;3.00;2.00;;;;;10.43;72.58;100309.63;5069907;28;45397;-62
2024/01/01 02:52:51;;;;;;;;;6.00;2.00;;;;;10.43;73.12;100317.63;5081460;28;45384;-62
2024/01/01 02:55:16;;;;;;;;;5.50;2.00;;;;;10.49;73.16;100331.59;5082421;28;45381;-62
2024/01/01 02:57:41;;;;;;;;;9.75;3.75;;;;;10.45;72.82;100323.78;5082052;28;45399;-62
2024/01/01 03:00:10;;;;;;;;;4.00;1.75;;;;;10.42;72.94;100318.56;5082210;28;45400;-62
2024/01/01 03:02:38;;;;;;;;;3.25;2.00;;;;;10.48;72.68;100329.00;5081984;28;45336;-62
2024/01/01 03:05:07;;;;;;;;;2.25;1.75;;;;;10.46;72.59;100339.72;5077445;28;45477;-62
2024/01/01 03:07:33;;;;;;;;;3.00;1.75;;;;;10.29;72.92;100305.66;5080909;28;45386;-62
2024/01/01 03:09:59;;;;;;;;;4.00;3.00;;;;;10.39;72.89;100322.22;5081898;28;45310;-62
2024/01/01 03:12:24;;;;;;;;;7.00;2.00;;;;;10.35;73.22;100331.25;5082307;28;45257;-62
2024/01/01 03:14:49;;;;;;;;;3.00;2.00;;;;;10.33;72.60;100328.66;5081872;28;45285;-62
2024/01/01 03:17:15;;;;;;;;;3.75;2.00;;;;;10.33;72.86;100341.13;5081617;28;50912;-62
2024/01/01 03:19:40;;;;;;;;;8.25;2.75;;;;;10.30;72.97;100344.72;5080990;28;45344;-61
2024/01/01 03:22:05;;;;;;;;;1.50;1.00;;;;;10.33;72.83;100341.13;5079467;28;45293;-62
2024/01/01 03:24:31;;;;;;;;;1.25;1.00;;;;;10.30;73.19;100339.38;5081743;28;45714;-62
2024/01/01 03:26:56;;;;;;;;;3.50;1.00;;;;;10.32;72.90;100326.91;5081550;28;45414;-62
2024/01/01 03:29:21;;;;;;;;;3.50;2.50;;;;;10.43;72.75;100355.00;5081791;28;45268;-62
2024/01/01 03:31:47;;;;;;;;;3.75;1.00;;;;;10.44;72.68;100348.69;5081592;28;45336;-62
2024/01/01 03:34:12;;;;;;;;;1.50;0.25;;;;;10.47;72.42;100353.94;5078205;28;57411;-62
2024/01/01 03:36:38;;;;;;;;;2.25;0.00;;;;;10.45;72.27;100353.97;5066506;28;46364;-62
2024/01/01 03:39:03;;;;;;;;;2.50;2.50;;;;;10.50;72.05;100352.00;5081855;28;45388;-62
2024/01/01 03:41:29;;;;;;;;;3.75;1.25;;;;;10.37;72.34;100338.28;5041497;28;45356;-62
2024/01/01 03:43:56;;;;;;;;;4.50;2.00;;;;;10.47;71.88;100365.47;5041185;28;45316;-62
2024/01/01 03:46:22;;;;;;;;;2.50;2.00;;;;;10.45;72.27;100370.00;5040806;28;45975;-62
2024/01/01 03:48:47;;;;;;;;;3.00;2.00;;;;;10.45;71.92;100363.78;5038348;28;45416;-62
2024/01/01 03:51:12;;;;;;;;;4.00;2.50;;;;;10.28;71.40;100349.25;5038555;28;45432;-62
2024/01/01 03:53:38;;;;;;;;;2.25;1.75;;;;;10.35;72.35;100381.94;5039628;28;45413;-62
2024/01/01 03:56:03;;;;;;;;;3.00;3.00;;;;;10.33;72.13;100374.00;5040328;28;52295;-61
2024/01/01 03:58:29;;;;;;;;;2.25;1.50;;;;;10.37;72.16;100382.75;5040503;28;45493;-62
2024/01/01 04:00:54;;;;;;;;;3.00;1.75;;;;;10.36;72.19;100373.03;5039748;28;45413;-62
2024/01/01 04:03:19;;;;;;;;;7.00;1.75;;;;;10.36;71.76;100391.69;5055678;28;52621;-62
2024/01/01 04:05:45;;;;;;;;;6.25;2.25;;;;;10.34;71.75;100391.75;5040287;28;49072;-62
2024/01/01 04:08:10;;;;;;;;;2.25;1.00;;;;;10.24;71.74;100385.00;5040261;28;45441;-62
2024/01/01 04:10:35;;;;;;;;;3.00;1.00;;;;;10.27;71.77;100392.00;5040550;28;45836;-62
2024/01/01 04:13:01;;;;;;;;;1.50;1.00;;;;;10.30;71.57;100389.22;5040402;28;52813;-62
2024/01/01 04:15:26;;;;;;;;;1.00;1.00;;;;;10.24;71.47;100382.31;5040452;28;46103;-62
2024/01/01 04:17:52;;;;;;;;;1.00;1.00;;;;;10.29;71.43;100395.47;5040133;28;50295;-62
2024/01/01 04:20:17;;;;;;;;;1.50;1.50;;;;;10.33;71.54;100406.00;5038992;28;54158;-62
2024/01/01 04:22:42;;;;;;;;;4.75;2.25;;;;;10.28;71.30;100391.94;5037669;28;60896;-62
2024/01/01 04:25:08;;;;;;;;;1.75;0.75;;;;;10.29;70.70;100401.69;5040239;28;45493;-62
2024/01/01 04:27:34;;;;;;;;;2.00;1.00;;;;;10.22;71.54;100383.28;5040365;28;45346;-62
2024/01/01 04:29:59;;;;;;;;;1.00;1.00;;;;;10.22;71.16;100418.84;5040407;28;45406;-62
2024/01/01 04:32:25;;;;;;;;;4.25;2.00;;;;;10.14;71.32;100396.91;5040317;28;45658;-62
2024/01/01 04:34:50;;;;;;;;;3.00;1.00;;;;;10.27;70.97;100411.53;5039354;28;67707;-62
2024/01/01 04:37:16;;;;;;;;;0.50;0.50;;;;;10.19;71.20;100419.81;5040314;28;45362;-62
2024/01/01 04:39:41;;;;;;;;;1.25;0.75;;;;;10.20;70.64;100407.34;5046304;28;45438;-62
2024/01/01 04:42:07;;;;;;;;;2.00;0.50;;;;;10.19;70.91;100419.81;5080541;28;45537;-62
2024/01/01 04:44:32;;;;;;;;;0.00;0.00;;;;;10.23;71.28;100428.59;5080477;28;45421;-62
2024/01/01 04:46:57;;;;;;;;;2.00;1.00;;;;;10.17;71.33;100408.34;5080038;28;52977;-61
2024/01/01 04:49:23;;;;;;;;;2.25;0.75;;;;;10.27;70.78;100424.00;5075073;28;45494;-62
2024/01/01 04:51:48;;;;;;;;;0.75;0.25;;;;;10.24;70.88;100427.69;5080578;28;45314;-62
2024/01/01 04:54:13;;;;;;;;;1.00;1.00;;;;;10.19;70.42;100408.31;5079800;28;55837;-62
2024/01/01 04:56:39;;;;;;;;;1.00;1.00;;;;;10.29;71.16;100427.47;5080478;28;45483;-62
2024/01/01 04:59:06;;;;;;;;;0.50;0.00;;;;;10.30;70.52;100426.56;5076769;28;49094;-62
2024/01/01 05:01:31;;;;;;;;;3.00;0.50;;;;;10.15;70.81;100407.50;5080053;28;45327;-61
2024/01/01 05:03:57;;;;;;;;;1.50;0.00;;;;;10.23;70.73;100423.25;5079936;28;49417;-61
2024/01/01 05:06:22;;;;;;;;;0.25;0.00;;;;;10.16;70.91;100411.06;5079964;28;49591;-62
2024/01/01 05:08:47;;;;;;;;;0.00;0.00;;;;;10.16;70.63;100438.59;5080214;28;45544;-62
2024/01/01 05:11:12;;;;;;;;;0.75;0.00;;;;;10.11;70.47;100416.56;5060155;28;52908;-62
2024/01/01 05:13:38;;;;;;;;;1.00;1.00;;;;;10.19;70.56;100437.63;5079933;28;46577;-62
2024/01/01 05:16:08;;;;;;;;;0.00;0.00;;;;;10.13;70.75;100428.03;5079600;28;58100;-61
2024/01/01 05:18:34;;;;;;;;;2.00;1.00;;;;;10.05;70.28;100424.78;5077066;28;45566;-62
2024/01/01 05:20:59;;;;;;;;;0.00;0.00;;;;;10.08;70.34;100426.47;5078332;28;45463;-62
2024/01/01 05:23:24;;;;;;;;;4.25;1.25;;;;;10.15;70.51;100436.00;5078972;28;65086;-62
2024/01/01 05:25:50;;;;;;;;;1.25;0.00;;;;;10.17;70.77;100444.81;5079627;28;50715;-62
2024/01/01 05:28:15;;;;;;;;;1.00;1.00;;;;;10.17;70.49;100451.03;5079974;28;45467;-62
2024/01/01 05:30:40;;;;;;;;;4.00;0.50;;;;;10.16;71.05;100448.41;5080089;28;45425;-62
2024/01/01 05:33:05;;;;;;;;;1.00;0.00;;;;;10.08;70.47;100440.66;5060963;28;55672;-62
2024/01/01 05:35:31;;;;;;;;;0.50;0.50;;;;;10.13;70.28;100465.38;5079913;28;45434;-62
2024/01/01 05:37:56;;;;;;;;;0.00;0.00;;;;;10.11;70.86;100464.56;5079924;28;45476;-62
2024/01/01 05:40:22;;;;;;;;;4.50;1.50;;;;;10.12;70.89;100465.44;5079936;28;45306;-62
2024/01/01 05:42:47;;;;;;;;;1.00;0.00;;;;;10.08;70.91;100466.47;5061169;28;47095;-62
2024/01/01 05:45:13;;;;;;;;;2.00;0.00;;;;;10.10;70.79;100478.81;5079581;28;45617;-62
2024/01/01 05:47:38;;;;;;;;;2.50;1.00;;;;;10.12;71.16;100473.44;5079484;28;45575;-62
2024/01/01 05:50:03;;;;;;;;;1.50;0.75;;;;;10.09;70.92;100476.19;5068008;28;45428;-62
2024/01/01 05:52:29;;;;;;;;;0.50;0.50;;;;;10.05;70.65;100470.09;5075467;28;45462;-62
2024/01/01 05:54:54;;;;;;;;;1.75;1.00;;;;;10.12;70.97;100485.00;5079681;28;45369;-62
2024/01/01 05:57:19;;;;;;;;;2.00;0.00;;;;;9.99;71.01;100462.34;5079413;28;45296;-62
2024/01/01 05:59:45;;;;;;;;;2.00;0.00;;;;;10.11;70.97;100482.38;5079647;28;45536;-62
2024/01/01 06:02:10;;;;;;;;;1.75;1.00;;;;;10.11;70.58;100480.56;5060684;28;47286;-62
2024/01/01 06:04:35;;;;;;;;;0.00;0.00;;;;;10.00;71.19;100477.41;5079346;28;45427;-62
2024/01/01 06:07:00;;;;;;;;;1.25;0.75;;;;;10.07;71.29;100480.72;5076516;28;45319;-62
2024/01/01 06:09:26;;;;;;;;;1.75;1.25;;;;;10.01;71.00;100479.16;5068403;28;60610;-62
2024/01/01 06:11:51;;;;;;;;;0.00;0.00;;;;;9.95;70.70;100479.34;5079267;28;45380;-62
2024/01/01 06:14:16;;;;;;;;;3.50;1.00;;;;;9.91;70.77;100467.06;5079114;28;45402;-62
2024/01/01 06:16:44;;;;;;;;;0.00;0.00;;;;;9.91;71.14;100488.41;5079249;28;45351;-62
2024/01/01 06:19:10;;;;;;;;;2.00;0.00;;;;;9.88;71.25;100481.34;5060143;28;45335;-61
2024/01/01 06:21:36;;;;;;;;;2.25;0.25;;;;;9.93;71.42;100495.41;5077603;28;45355;-62
2024/01/01 06:24:01;;;;;;;;;3.00;1.75;;;;;9.97;71.58;100490.81;5082866;28;45279;-62
2024/01/01 06:26:27;;;;;;;;;1.50;1.00;;;;;9.82;71.53;100469.13;5082515;27;45393;-62
2024/01/01 06:28:52;;;;;;;;;1.50;1.00;;;;;9.91;71.74;100481.25;5081775;27;50601;-62
2024/01/01 06:31:17;;;;;;;;;0.75;0.75;;;;;9.87;71.73;100479.59;5082210;27;46525;-62
2024/01/01 06:33:42;;;;;;;;;1.00;1.00;;;;;9.91;71.83;100486.59;5082837;28;45606;-62
2024/01/01 06:36:09;;;;;;;;;3.25;0.25;;;;;9.98;71.41;100500.59;5082259;27;46067;-62
2024/01/01 06:38:36;;;;;;;;;5.00;0.00;;;;;9.91;71.08;100507.06;5081194;28;45453;-62
2024/01/01 06:41:01;;;;;;;;;1.25;0.50;;;;;9.83;71.51;100493.97;5082312;28;45988;-62
2024/01/01 06:43:27;;;;;;;;;0.00;0.00;;;;;9.92;71.85;100519.44;5082442;28;45481;-62
2024/01/01 06:45:52;;;;;;;;;1.25;1.00;;;;;9.91;71.98;100507.91;5082456;28;45326;-62
2024/01/01 06:48:17;;;;;;;;;1.50;0.25;;;;;9.82;71.94;100495.78;5081033;28;56052;-62
2024/01/01 06:50:43;;;;;;;;;2.00;1.00;;;;;9.98;71.49;100522.78;5074633;28;45540;-62
2024/01/01 06:53:08;;;;;;;;;2.00;1.00;;;;;9.96;71.59;100534.44;5080223;28;45325;-62
2024/01/01 06:55:34;;;;;;;;;0.00;0.00;;;;;9.97;72.06;100542.38;5063936;28;45350;-62
2024/01/01 06:57:59;;;;;;;;;2.00;0.00;;;;;9.97;71.53;100547.72;5082229;28;45331;-62
2024/01/01 07:00:24;;;;;;;;;0.75;0.25;;;;;9.92;71.90;100555.00;5081302;28;45466;-62
2024/01/01 07:02:50;;;;;;;;;3.25;1.00;;;;;9.93;71.91;100543.41;5081892;28;45280;-66
2024/01/01 07:05:15;;;;;;;;;1.00;1.00;;;;;9.69;71.52;100518.41;5076247;28;45315;-66
2024/01/01 07:07:41;;;;;;;;;0.50;0.25;;;;;9.95;72.13;100575.34;5063548;28;45483;-66
2024/01/01 07:10:06;;;;;;;;;1.50;0.50;;;;;9.90;71.62;100571.94;5081957;28;45699;-66
2024/01/01 07:12:31;;;;;;;;;1.00;0.00;;;;;9.95;72.12;100573.53;5063707;28;45323;-65
2024/01/01 07:14:57;;;;;;;;;6.25;2.25;;;;;9.91;72.18;100576.38;5081790;28;45335;-66
2024/01/01 07:17:22;;;;;;;;;1.00;1.00;;;;;9.91;71.54;100576.38;5081816;28;45472;-66
2024/01/01 07:19:48;;;;;;;;;2.00;0.25;;;;;9.94;72.08;100576.25;5061009;28;46720;-65
2024/01/01 07:22:13;;;;;;;;;2.50;0.75;;;;;9.90;72.11;100569.28;5081932;28;45442;-65
2024/01/01 07:24:40;;;;;;;;;0.00;0.00;;;;;9.94;72.11;100579.81;5081906;28;45774;-65
2024/01/01 07:27:05;;;;;;;;;0.00;0.00;;;;;9.91;72.44;100582.56;5081545;28;45469;-66
2024/01/01 07:29:31;;;;;;;;;1.00;1.00;;;;;9.89;71.70;100583.53;5081489;27;45469;-66
2024/01/01 07:31:57;;;;;;;;;2.00;0.50;;;;;9.90;71.81;100578.16;5046702;28;45904;-66
2024/01/01 07:34:23;;;;;;;;;0.75;0.00;;;;;10.00;71.73;100584.94;5078506;27;45393;-66
2024/01/01 07:36:48;;;;;;;;;3.00;0.50;;;;;10.02;72.18;100592.88;5081702;27;45409;-65
2024/01/01 07:39:19;;;;;;;;;1.00;1.00;;;;;10.02;72.14;100598.22;5076360;28;45494;-66
2024/01/01 07:41:47;;;;;;;;;0.25;0.25;;;;;10.05;72.54;100600.78;5078147;28;45657;-66
2024/01/01 07:44:12;;;;;;;;;1.75;1.00;;;;;10.02;71.74;100614.22;5080132;28;45320;-66
2024/01/01 07:46:38;;;;;;;;;1.00;1.00;;;;;9.97;71.60;100595.72;5078203;28;60573;-62
2024/01/01 07:49:05;;;;;;;;;0.25;0.25;;;;;9.94;72.22;100605.59;5075529;27;45962;-62
2024/01/01 07:51:31;;;;;;;;;2.00;1.00;;;;;9.96;72.31;100611.75;5083095;27;45489;-62
2024/01/01 07:53:56;;;;;;;;;1.00;0.00;;;;;9.97;72.07;100618.81;5082155;27;45527;-62
2024/01/01 07:56:21;;;;;;;;;1.50;1.00;;;;;9.94;71.68;100609.16;5079142;28;45431;-61
2024/01/01 07:58:47;;;;;;;;;2.00;1.00;;;;;9.97;71.96;100609.06;5079722;28;45289;-61
2024/01/01 08:01:16;;;;;;;;;4.00;1.00;;;;;9.94;72.35;100611.81;5078854;28;54882;-61
2024/01/01 08:03:41;;;;;;;;;2.00;0.25;;;;;9.97;72.07;100630.38;5072521;28;45428;-61
2024/01/01 08:06:06;;;;;;;;;1.25;1.25;;;;;9.83;72.25;100603.28;5068247;28;49377;-62
2024/01/01 08:08:32;;;;;;;;;2.50;1.50;;;;;9.97;72.03;100619.72;5080527;28;57418;-62
2024/01/01 08:10:57;;;;;;;;;1.75;1.00;;;;;9.98;72.05;100625.91;5063126;28;47870;-62
2024/01/01 08:13:22;;;;;;;;;1.00;1.00;;;;;9.93;72.39;100625.19;5072128;28;45500;-62
2024/01/01 08:15:48;;;;;;;;;2.50;1.00;;;;;9.97;72.25;100629.50;5079153;28;45358;-62
2024/01/01 08:18:13;;;;;;;;;2.00;0.75;;;;;9.99;72.44;100639.19;5080151;28;46129;-62
2024/01/01 08:20:38;;;;;;;;;2.25;1.75;;;;;9.80;71.98;100614.03;5075397;27;56417;-62
2024/01/01 08:23:04;;;;;;;;;1.25;1.00;;;;;9.97;72.14;100654.38;5052016;28;45575;-62
2024/01/01 08:25:29;;;;;;;;;2.50;1.50;;;;;9.84;72.26;100623.69;5056882;28;59439;-62
2024/01/01 08:27:54;;;;;;;;;1.25;0.50;;;;;9.97;72.33;100648.16;5078915;28;45300;-62
2024/01/01 08:30:19;;;;;;;;;1.75;1.00;;;;;9.95;72.67;100661.53;5078374;28;45442;-62
2024/01/01 08:32:45;;;;;;;;;1.25;1.25;;;;;9.94;72.89;100666.91;5059060;27;45377;-62
2024/01/01 08:35:10;;;;;;;;;2.00;1.00;;;;;9.86;72.57;100659.16;5090003;27;45228;-62
2024/01/01 08:37:35;;;;;;;;;3.75;1.00;;;;;9.87;72.62;100668.03;5079111;27;46386;-62
2024/01/01 08:40:01;;;;;;;;;1.00;1.00;;;;;9.92;73.06;100672.31;5061227;28;48926;-62
2024/01/01 08:42:26;;;;;;;;;3.50;2.00;;;;;9.89;72.86;100664.41;5080185;28;45631;-62
2024/01/01 08:44:52;;;;;;;;;1.25;1.00;;;;;9.98;73.03;100680.09;5079654;27;45354;-62
2024/01/01 08:47:17;;;;;;;;;2.75;0.50;;;;;10.00;72.67;100688.06;5078730;28;45470;-62
2024/01/01 08:49:43;;;;;;;;;0.00;0.00;;;;;9.95;72.87;100688.19;5059590;28;45410;-62
2024/01/01 08:52:08;;;;;;;;;2.00;1.00;;;;;9.93;72.57;100674.03;5077674;28;45508;-62
2024/01/01 08:54:33;;;;;;;;;4.50;1.00;;;;;9.98;72.84;100681.91;5079279;27;45336;-62
2024/01/01 08:56:59;;;;;;;;;2.00;1.00;;;;;10.04;73.16;100700.41;5058918;28;46162;-62
2024/01/01 08:59:24;;;;;;;;;3.00;0.00;;;;;10.04;72.66;100696.84;5079152;28;53136;-62
2024/01/01 09:01:49;;;;;;;;;0.75;0.75;;;;;9.98;72.79;100684.56;5078858;28;45378;-62
2024/01/01 09:04:15;;;;;;;;;1.00;1.00;;;;;9.97;72.84;100677.50;5081340;27;45580;-62
2024/01/01 09:06:40;;;;;;;;;3.00;1.00;;;;;10.02;72.62;100683.53;5053285;28;45655;-62
2024/01/01 09:09:06;;;;;;;;;1.50;1.50;;;;;10.10;72.85;100684.19;5074470;28;45456;-62
2024/01/01 09:11:32;;;;;;;;;2.25;1.00;;;;;10.12;72.81;100687.69;5079197;28;45729;-62
2024/01/01 09:13:57;;;;;;;;;4.25;1.50;;;;;10.11;73.37;100687.75;5079148;27;62538;-62
2024/01/01 09:16:22;;;;;;;;;2.50;1.25;;;;;10.15;72.62;100687.56;5076999;28;46051;-62
2024/01/01 09:18:48;;;;;;;;;0.50;0.00;;;;;10.19;72.78;100693.72;5077773;28;45408;-62
2024/01/01 09:21:15;;;;;;;;;6.50;3.50;;;;;10.14;73.33;100685.84;5074571;28;45326;-62
2024/01/01 09:23:41;;;;;;;;;7.25;4.00;;;;;10.25;72.90;100703.31;5079791;27;45438;-62
2024/01/01 09:26:06;;;;;;;;;3.00;3.00;;;;;10.24;72.81;100713.13;5073742;27;47118;-62
2024/01/01 09:28:33;;;;;;;;;7.25;1.25;;;;;10.26;72.89;100707.75;5065579;28;45572;-62
2024/01/01 09:30:58;;;;;;;;;4.75;2.00;;;;;10.27;73.30;100714.78;5084408;27;45743;-62
2024/01/01 09:33:23;;;;;;;;;1.25;1.25;;;;;10.29;73.15;100735.19;5078560;28;45673;-62
2024/01/01 09:35:49;;;;;;;;;2.00;0.75;;;;;10.24;73.17;100728.22;5077802;28;45999;-62
2024/01/01 09:38:14;;;;;;;;;4.00;2.00;;;;;10.30;73.23;100738.72;5052749;28;45829;-62
2024/01/01 09:40:40;;;;;;;;;4.25;2.75;;;;;10.25;73.02;100740.66;5077384;27;45445;-62
2024/01/01 09:43:05;;;;;;;;;1.50;1.00;;;;;10.27;73.61;100750.34;5058554;28;45696;-62
2024/01/01 09:45:31;;;;;;;;;2.00;1.75;;;;;10.22;73.52;100746.94;5055370;28;58578;-62
2024/01/01 09:47:57;;;;;;;;;1.50;1.25;;;;;10.27;73.29;100746.81;5070609;28;45932;-62
2024/01/01 09:50:22;;;;;;;;;2.25;2.00;;;;;10.23;73.29;100743.38;5077899;27;45385;-62
2024/01/01 09:52:58;;;;;;;;;3.25;2.00;;;;;10.27;73.42;100749.47;5075923;28;49141;-62
2024/01/01 09:55:23;;;;;;;;;2.00;2.00;;;;;10.27;73.24;100752.16;5064666;28;46431;-62
2024/01/01 09:57:48;;;;;;;;;7.00;1.50;;;;;10.20;73.36;100741.66;5075603;28;53919;-62
2024/01/01 10:00:23;;;;;;;;;2.00;1.75;;;;;10.29;73.79;100753.88;5076133;27;63651;-62
2024/01/01 10:02:49;;;;;;;;;2.50;0.00;;;;;10.29;73.84;100737.84;5077616;28;45311;-62
2024/01/01 10:05:16;;;;;;;;;0.00;0.00;;;;;10.29;73.21;100729.84;5077526;28;45469;-62
2024/01/01 10:07:41;;;;;;;;;5.75;3.25;;;;;10.31;73.33;100740.47;5076831;28;45682;-62
2024/01/01 10:10:08;;;;;;;;;3.00;1.00;;;;;10.34;73.67;100746.63;5076400;28;45641;-62
2024/01/01 10:12:33;;;;;;;;;3.25;1.75;;;;;10.29;73.61;100732.53;5076890;28;45795;-62
2024/01/01 10:14:59;;;;;;;;;3.00;1.00;;;;;10.36;73.97;100751.91;5058957;28;56248;-62
2024/01/01 10:17:25;;;;;;;;;4.00;2.00;;;;;10.35;73.44;100751.00;5073955;28;45424;-62
2024/01/01 10:19:52;;;;;;;;;1.75;1.75;;;;;10.38;74.05;100737.59;5074950;28;45723;-62
2024/01/01 10:22:18;;;;;;;;;3.25;1.00;;;;;10.41;73.81;100733.97;5068257;27;45504;-62
2024/01/01 10:24:48;;;;;;;;;2.25;1.00;;;;;10.41;73.72;100741.97;5075556;28;46100;-62
2024/01/01 10:27:19;;;;;;;;;1.50;1.00;;;;;10.43;73.63;100742.78;5076394;28;45789;-62
2024/01/01 10:29:49;;;;;;;;;3.25;1.00;;;;;10.36;73.99;100731.44;5059076;28;45604;-62
2024/01/01 10:32:18;;;;;;;;;1.50;1.00;;;;;10.42;73.94;100742.81;5079332;27;45763;-62
2024/01/01 10:34:47;;;;;;;;;4.25;2.00;;;;;10.46;73.90;100736.47;5077037;28;46422;-62
2024/01/01 10:37:19;;;;;;;;;3.25;1.00;;;;;10.40;73.44;100713.53;5074680;28;45643;-62
2024/01/01 10:39:45;;;;;;;;;3.00;1.25;;;;;10.38;74.12;100708.22;5076717;28;45618;-62
2024/01/01 10:42:11;;;;;;;;;1.00;1.00;;;;;10.53;74.40;100720.22;5076999;27;45565;-62
2024/01/01 10:44:38;;;;;;;;;1.50;1.00;;;;;10.53;74.09;100714.88;5076814;28;45545;-62
2024/01/01 10:47:11;;;;;;;;;8.25;7.25;;;;;10.51;73.94;100702.50;5075673;28;45487;-62
2024/01/01 10:49:40;;;;;;;;;3.00;3.00;;;;;10.65;74.03;100715.41;5075679;28;45425;-62
2024/01/01 10:52:29;;;;;;;;;3.75;2.75;;;;;10.63;74.31;100714.59;5074152;27;45555;-62
2024/01/01 10:55:34;;;;;;;;;4.75;2.50;;;;;10.68;74.17;100721.50;5075148;28;46826;-62
2024/01/01 10:58:28;;;;;;;;;4.00;3.00;;;;;10.67;74.01;100717.06;5048438;28;45729;-62
2024/01/01 11:01:04;;;;;;;;;3.00;1.00;;;;;10.59;73.89;100697.75;5076715;27;45531;-62
2024/01/01 11:03:33;;;;;;;;;5.50;2.00;;;;;10.54;74.58;100699.72;5076161;28;45468;-62
2024/01/01 11:05:58;;;;;;;;;2.50;2.00;;;;;10.71;74.30;100723.22;5071453;28;45947;-62
2024/01/01 11:08:27;;;;;;;;;3.50;1.00;;;;;10.67;74.47;100713.53;5076370;27;45677;-62
2024/01/01 11:10:54;;;;;;;;;3.00;3.00;;;;;10.78;74.13;100727.41;5053617;28;45423;-62
2024/01/01 11:13:26;;;;;;;;;2.25;1.50;;;;;10.83;74.51;100728.13;5079732;28;45489;-62
2024/01/01 11:15:58;;;;;;;;;4.50;2.00;;;;;10.82;74.11;100725.50;5081600;27;46227;-62
2024/01/01 11:18:32;;;;;;;;;2.25;1.00;;;;;10.70;74.02;100703.63;5080381;28;45367;-62
2024/01/01 11:20:58;;;;;;;;;4.25;2.00;;;;;10.89;74.38;100732.38;5079320;28;45509;-62